Time;durP1;ratioP1;P1;durP2;ratioP2;P2;SDS_P1;SDS_P2;PMS_P1;PMS_P2;Temp;Humidity;BMP_temperature;BMP_pressure;BME280_temperature;BME280_humidity;BME280_pressure;Samples;Min_cycle;Max_cycle;Signal;HPM_P1;HPM_P2
2023/04/12 00:01:15;;;;;;;6.93;2.70;;;;;;;11.49;56.95;100092.47;4130086;28;20046;-62
2023/04/12 00:03:19;;;;;;;7.60;2.65;;;;;;;11.46;56.55;100089.84;4131362;28;20427;-63
2023/04/12 00:05:25;;;;;;;12.18;4.72;;;;;;;11.41;57.10;100084.63;4125421;28;20101;-63
2023/04/12 00:07:29;;;;;;;7.68;2.65;;;;;;;11.32;57.18;100067.25;4138518;28;20101;-62
2023/04/12 00:09:35;;;;;;;7.97;2.70;;;;;;;11.36;58.01;100070.75;4127440;28;20035;-63
2023/04/12 00:11:39;;;;;;;8.07;3.53;;;;;;;11.37;57.52;100062.03;4133308;28;20037;-63
2023/04/12 00:13:42;;;;;;;9.00;3.00;;;;;;;11.33;57.71;100066.38;4122664;28;20042;-63
2023/04/12 00:15:45;;;;;;;9.60;3.45;;;;;;;11.33;58.11;100057.69;4145224;28;20089;-63
2023/04/12 00:17:48;;;;;;;9.13;3.53;;;;;;;11.32;58.15;100050.75;4140854;28;20038;-62
2023/04/12 00:19:51;;;;;;;8.68;3.75;;;;;;;11.25;59.11;100052.44;4120459;28;20445;-62
2023/04/12 00:21:53;;;;;;;10.30;3.63;;;;;;;11.26;58.42;100059.41;4117310;28;20042;-62
2023/04/12 00:23:56;;;;;;;7.50;2.70;;;;;;;11.28;59.20;100062.00;4113376;28;20066;-62
2023/04/12 00:26:00;;;;;;;7.03;2.72;;;;;;;11.26;59.90;100042.94;4128885;28;20485;-63
2023/04/12 00:28:04;;;;;;;7.18;3.05;;;;;;;11.27;60.38;100045.53;4134474;28;20137;-62
2023/04/12 00:30:08;;;;;;;7.97;2.90;;;;;;;11.21;60.98;100045.50;4130420;28;20073;-63
2023/04/12 00:32:11;;;;;;;7.93;3.63;;;;;;;11.21;61.41;100036.81;4131035;28;20598;-63
2023/04/12 00:34:14;;;;;;;7.50;2.70;;;;;;;11.19;61.35;100052.44;4122998;28;20030;-63
2023/04/12 00:36:17;;;;;;;9.32;3.22;;;;;;;11.18;61.17;100051.56;4134439;28;20096;-63
2023/04/12 00:38:20;;;;;;;7.00;2.83;;;;;;;11.16;62.02;100052.41;4108903;28;20038;-64
2023/04/12 00:40:23;;;;;;;7.18;3.00;;;;;;;11.13;62.19;100048.06;4120055;28;20047;-63
2023/04/12 00:42:26;;;;;;;8.25;2.83;;;;;;;11.07;59.68;100041.94;4128526;28;20030;-63
2023/04/12 00:44:31;;;;;;;7.57;2.78;;;;;;;11.11;59.89;100047.19;4100748;28;20039;-64
2023/04/12 00:46:34;;;;;;;7.97;3.10;;;;;;;11.11;60.74;100055.00;4111542;28;20531;-64
2023/04/12 00:48:38;;;;;;;8.65;2.92;;;;;;;11.13;61.06;100047.19;4122948;28;20042;-63
2023/04/12 00:50:43;;;;;;;8.30;2.72;;;;;;;11.07;61.42;100042.84;4128621;28;20042;-64
2023/04/12 00:52:46;;;;;;;9.48;3.15;;;;;;;11.02;62.54;100039.31;4134415;28;20042;-63
2023/04/12 00:54:50;;;;;;;7.20;2.22;;;;;;;10.93;60.84;100036.69;4128676;28;20045;-63
2023/04/12 00:56:53;;;;;;;5.43;2.28;;;;;;;10.91;60.78;100035.81;4114268;28;20041;-63
2023/04/12 00:58:57;;;;;;;5.82;2.65;;;;;;;10.67;61.09;100042.56;4132234;28;20556;-64
2023/04/12 01:01:01;;;;;;;6.35;2.50;;;;;;;10.57;60.88;100036.47;4119793;28;20105;-63
2023/04/12 01:03:07;;;;;;;7.80;2.30;;;;;;;10.50;61.85;100036.38;4124602;28;20424;-63
2023/04/12 01:05:13;;;;;;;7.57;2.17;;;;;;;10.36;62.09;100042.34;4138472;28;20582;-64
2023/04/12 01:07:36;;;;;;;7.05;2.33;;;;;;;10.51;62.56;100030.31;4135080;28;20039;-63
2023/04/12 01:09:50;;;;;;;5.72;2.47;;;;;;;10.58;62.86;100034.72;4122537;28;20493;-64
2023/04/12 01:12:06;;;;;;;7.68;2.55;;;;;;;10.68;63.35;100022.66;4115728;28;20038;-63
2023/04/12 01:14:15;;;;;;;7.10;2.20;;;;;;;10.51;63.29;100019.94;4129755;28;20046;-63
2023/04/12 01:16:28;;;;;;;6.95;2.30;;;;;;;10.48;63.07;100013.88;4142815;28;20417;-63
2023/04/12 01:18:39;;;;;;;7.80;2.50;;;;;;;10.51;64.20;100014.72;4131158;28;20042;-63
2023/04/12 01:20:51;;;;;;;8.30;2.47;;;;;;;10.55;64.10;100014.75;4111140;28;20544;-63
2023/04/12 01:23:12;;;;;;;9.52;2.30;;;;;;;10.57;64.60;100010.47;4133954;28;20042;-63
2023/04/12 01:25:33;;;;;;;8.35;2.40;;;;;;;10.56;64.69;100005.25;4140451;28;20042;-63
2023/04/12 01:27:43;;;;;;;6.40;2.45;;;;;;;10.60;64.88;100001.78;4134734;28;20038;-63
2023/04/12 01:29:50;;;;;;;7.13;2.40;;;;;;;10.58;65.44;99993.13;4133587;28;20042;-63
2023/04/12 01:31:56;;;;;;;7.43;2.50;;;;;;;10.52;66.42;99991.34;4139211;28;20481;-63
2023/04/12 01:34:02;;;;;;;7.28;2.30;;;;;;;10.50;66.71;99979.19;4121031;28;20042;-63
2023/04/12 01:36:11;;;;;;;6.65;2.40;;;;;;;10.50;66.35;99984.41;4126185;28;20117;-63
2023/04/12 01:38:14;;;;;;;6.93;3.00;;;;;;;10.48;67.00;99979.19;4133395;28;20058;-63
2023/04/12 01:40:19;;;;;;;8.00;2.55;;;;;;;10.41;67.95;99969.63;4102649;28;20051;-63
2023/04/12 01:42:22;;;;;;;6.85;2.35;;;;;;;10.44;67.72;99977.44;4133321;28;20052;-63
2023/04/12 01:44:26;;;;;;;5.18;1.90;;;;;;;10.41;67.79;99967.91;4136853;28;20125;-63
2023/04/12 01:46:31;;;;;;;7.47;2.45;;;;;;;10.42;67.76;99969.63;4098304;28;20039;-62
2023/04/12 01:48:34;;;;;;;;;;;;;;;10.26;69.13;99963.41;4138601;28;20034;-63
2023/04/12 01:50:44;;;;;;;6.20;2.03;;;;;;;10.27;69.24;99957.38;4118344;28;19930;-63
2023/04/12 01:52:53;;;;;;;6.30;2.17;;;;;;;10.31;68.66;99961.72;4120233;28;21039;-63
2023/04/12 01:54:59;;;;;;;4.20;2.10;;;;;;;10.30;68.98;99947.00;4131960;28;20044;-63
2023/04/12 01:57:04;;;;;;;10.18;2.22;;;;;;;10.26;69.52;99936.56;4136027;28;20065;-63
2023/04/12 01:59:09;;;;;;;5.45;2.40;;;;;;;10.31;69.04;99933.16;4117656;28;20050;-64
2023/04/12 02:01:15;;;;;;;11.90;4.10;;;;;;;10.41;68.97;99933.22;4118977;28;20041;-63
2023/04/12 02:03:22;;;;;;;4.28;1.90;;;;;;;10.38;69.17;99931.50;4114608;28;20533;-63
2023/04/12 02:05:25;;;;;;;8.95;2.30;;;;;;;10.29;69.73;99928.78;4116961;28;20041;-63
2023/04/12 02:07:28;;;;;;;8.05;2.60;;;;;;;10.30;69.54;99922.75;4124620;28;20489;-63
2023/04/12 02:09:36;;;;;;;4.53;2.00;;;;;;;10.23;70.00;99913.19;4120612;28;21269;-63
2023/04/12 02:11:40;;;;;;;8.32;2.28;;;;;;;10.18;70.49;99909.66;4117223;28;20126;-63
2023/04/12 02:13:45;;;;;;;7.43;2.10;;;;;;;10.20;70.33;99911.41;4131119;28;20092;-62
2023/04/12 02:15:53;;;;;;;9.43;2.25;;;;;;;10.20;70.40;99908.81;4121514;28;20045;-63
2023/04/12 02:17:58;;;;;;;7.28;2.22;;;;;;;10.17;70.88;99901.00;4124295;28;20524;-63
2023/04/12 02:20:01;;;;;;;4.40;1.98;;;;;;;10.16;70.29;99904.47;4133847;28;20404;-63
2023/04/12 02:22:06;;;;;;;8.93;2.28;;;;;;;10.15;70.47;99897.53;4119075;28;20525;-63
2023/04/12 02:24:10;;;;;;;7.38;2.28;;;;;;;10.13;70.84;99897.53;4134932;28;20042;-63
2023/04/12 02:26:13;;;;;;;4.07;2.15;;;;;;;10.14;70.72;99891.47;4133030;28;20050;-63
2023/04/12 02:28:16;;;;;;;6.47;2.22;;;;;;;10.07;71.01;99888.81;4134103;28;20046;-63
2023/04/12 02:30:19;;;;;;;3.97;1.90;;;;;;;10.02;71.50;99894.00;4109028;28;20051;-63
2023/04/12 02:32:26;;;;;;;6.10;2.13;;;;;;;10.08;71.29;99891.44;4117619;28;20030;-63
2023/04/12 02:34:33;;;;;;;7.38;2.22;;;;;;;10.10;71.51;99888.84;4135608;28;20054;-63
2023/04/12 02:36:46;;;;;;;5.55;2.00;;;;;;;10.02;71.63;99881.00;4132858;28;20122;-63
2023/04/12 02:38:50;;;;;;;4.50;1.90;;;;;;;10.05;71.09;99873.22;4114328;28;20041;-63
2023/04/12 02:40:54;;;;;;;6.90;2.30;;;;;;;10.08;71.44;99869.78;4120332;28;20042;-63
2023/04/12 02:42:57;;;;;;;7.30;2.70;;;;;;;10.04;71.65;99868.88;4121012;28;20031;-63
2023/04/12 02:45:01;;;;;;;11.20;3.08;;;;;;;10.06;71.54;99867.19;4120830;28;20046;-63
2023/04/12 02:47:04;;;;;;;20.27;3.50;;;;;;;9.99;72.12;99862.81;4110975;28;20101;-63
2023/04/12 02:49:08;;;;;;;7.32;3.50;;;;;;;10.00;71.29;99855.88;4134066;28;20041;-63
2023/04/12 02:51:17;;;;;;;10.82;4.40;;;;;;;10.07;71.43;99844.66;4118268;28;20053;-63
2023/04/12 02:53:24;;;;;;;9.80;3.35;;;;;;;10.04;72.07;99848.09;4112294;28;20038;-63
2023/04/12 02:55:49;;;;;;;13.00;5.13;;;;;;;10.08;71.66;99838.63;4119491;28;20146;-63
2023/04/12 02:57:57;;;;;;;9.00;4.03;;;;;;;9.95;72.27;99824.69;4119477;28;20034;-63
2023/04/12 03:00:00;;;;;;;9.98;4.63;;;;;;;9.89;72.27;99829.84;4121779;28;20566;-63
2023/04/12 03:02:11;;;;;;;12.13;4.80;;;;;;;9.90;72.81;99828.97;4114851;28;20452;-63
2023/04/12 03:04:15;;;;;;;8.65;3.83;;;;;;;9.89;72.48;99825.53;4114972;28;20057;-63
2023/04/12 03:06:25;;;;;;;6.97;3.30;;;;;;;9.94;72.40;99818.63;4113864;28;20101;-63
2023/04/12 03:08:28;;;;;;;13.18;3.42;;;;;;;9.98;72.50;99810.88;4125157;28;20042;-63
2023/04/12 03:10:32;;;;;;;8.73;3.13;;;;;;;9.95;72.67;99811.72;4134244;28;20470;-63
2023/04/12 03:12:37;;;;;;;;;;;;;;;9.85;73.33;99799.53;4118768;28;20058;-63
2023/04/12 03:14:55;;;;;;;6.82;2.83;;;;;;;9.84;72.89;99792.59;4114314;28;19922;-62
2023/04/12 03:17:01;;;;;;;8.82;2.95;;;;;;;9.86;73.12;99802.13;4100395;28;20048;-63
2023/04/12 03:19:05;;;;;;;7.85;3.17;;;;;;;9.91;73.14;99799.56;4130495;28;20034;-63
2023/04/12 03:21:08;;;;;;;7.63;2.45;;;;;;;9.88;73.51;99796.94;4141176;28;20125;-63
2023/04/12 03:23:12;;;;;;;5.43;2.45;;;;;;;9.90;73.21;99796.09;4113993;28;20161;-63
2023/04/12 03:25:19;;;;;;;6.35;2.30;;;;;;;9.82;73.35;99789.13;4122919;28;20046;-63
2023/04/12 03:27:29;;;;;;;5.93;2.17;;;;;;;9.83;73.90;99777.88;4116745;28;20081;-63
2023/04/12 03:29:32;;;;;;;5.65;2.45;;;;;;;9.84;73.72;99777.00;4113422;28;20046;-63
2023/04/12 03:31:36;;;;;;;5.85;2.05;;;;;;;9.83;73.66;99764.88;4114621;28;20051;-63
2023/04/12 03:33:42;;;;;;;9.45;2.83;;;;;;;9.83;73.72;99765.78;4137049;28;20092;-64
2023/04/12 03:36:00;;;;;;;4.50;1.88;;;;;;;9.82;73.96;99763.16;4130632;28;20050;-64
2023/04/12 03:38:05;;;;;;;5.28;2.20;;;;;;;9.80;74.15;99755.38;4133369;28;20491;-64
2023/04/12 03:40:10;;;;;;;4.47;2.13;;;;;;;9.75;73.95;99752.75;4130855;28;20122;-63
2023/04/12 03:42:17;;;;;;;6.28;2.40;;;;;;;9.78;74.05;99747.56;4138549;28;20042;-63
2023/04/12 03:44:38;;;;;;;6.28;2.30;;;;;;;9.79;73.68;99738.91;4130138;28;20518;-63
2023/04/12 03:46:45;;;;;;;6.90;3.45;;;;;;;9.76;73.49;99732.84;4135513;28;20048;-63
2023/04/12 03:48:49;;;;;;;4.90;2.15;;;;;;;9.70;74.04;99722.44;4113673;28;20433;-63
2023/04/12 03:50:53;;;;;;;6.93;2.45;;;;;;;9.66;74.63;99723.28;4124113;28;20050;-63
2023/04/12 03:52:57;;;;;;;7.72;2.40;;;;;;;9.72;74.22;99716.38;4114670;28;20412;-63
2023/04/12 03:55:07;;;;;;;5.70;2.13;;;;;;;9.74;74.32;99714.69;4114766;28;20432;-63
2023/04/12 03:57:12;;;;;;;7.20;2.53;;;;;;;9.73;74.47;99704.28;4129066;28;20199;-63
2023/04/12 03:59:22;;;;;;;5.95;2.10;;;;;;;9.74;74.39;99699.09;4117869;28;20049;-63
2023/04/12 04:01:25;;;;;;;6.82;2.40;;;;;;;9.81;74.19;99693.94;4119361;28;20034;-63
2023/04/12 04:03:29;;;;;;;4.38;2.00;;;;;;;9.78;74.78;99692.19;4132762;28;20034;-63
2023/04/12 04:05:43;;;;;;;6.57;2.60;;;;;;;9.81;74.46;99683.53;4116742;28;20042;-63
2023/04/12 04:07:50;;;;;;;5.28;2.28;;;;;;;9.83;74.30;99684.41;4116922;28;20042;-63
2023/04/12 04:09:54;;;;;;;4.93;2.60;;;;;;;9.85;74.43;99680.97;4126530;28;20045;-63
2023/04/12 04:11:58;;;;;;;15.30;2.72;;;;;;;9.89;74.05;99676.66;4127833;28;20048;-63
2023/04/12 04:14:02;;;;;;;6.28;2.05;;;;;;;9.84;74.15;99668.88;4115688;28;20468;-63
2023/04/12 04:16:08;;;;;;;;;;;;;;;9.76;74.48;99668.81;4098612;28;20043;-63
2023/04/12 04:18:11;;;;;;;4.38;2.22;;;;;;;9.74;74.39;99662.75;4127206;28;19963;-63
2023/04/12 04:20:14;;;;;;;6.90;1.80;;;;;;;9.69;74.93;99656.66;4127922;28;20035;-63
2023/04/12 04:22:22;;;;;;;6.30;1.67;;;;;;;9.70;74.69;99658.41;4112884;28;20573;-64
2023/04/12 04:24:28;;;;;;;1.92;1.30;;;;;;;9.67;74.96;99648.03;4119350;28;20416;-64
2023/04/12 04:26:37;;;;;;;7.47;1.80;;;;;;;9.72;74.60;99646.28;4142346;28;20041;-64
2023/04/12 04:28:46;;;;;;;3.45;1.63;;;;;;;9.61;75.31;99645.41;4123895;28;20417;-64
2023/04/12 04:30:55;;;;;;;7.45;2.25;;;;;;;9.59;75.13;99637.59;4119642;28;20567;-64
2023/04/12 04:32:58;;;;;;;6.93;1.80;;;;;;;9.61;74.51;99633.28;4099831;28;20123;-64
2023/04/12 04:35:02;;;;;;;5.53;1.73;;;;;;;9.52;75.08;99624.56;4114933;28;20039;-64
2023/04/12 04:37:16;;;;;;;5.88;2.60;;;;;;;9.52;75.19;99624.56;4110913;28;20057;-64
2023/04/12 04:39:20;;;;;;;5.63;1.90;;;;;;;9.44;75.70;99627.13;4126062;28;20493;-64
2023/04/12 04:41:23;;;;;;;5.65;2.40;;;;;;;9.59;75.27;99626.34;4139135;28;20436;-64
2023/04/12 04:43:34;;;;;;;4.55;1.40;;;;;;;9.54;75.21;99622.88;4117673;28;20399;-63
2023/04/12 04:45:40;;;;;;;4.63;2.35;;;;;;;9.51;75.44;99620.28;4116734;28;20042;-64
2023/04/12 04:47:44;;;;;;;5.13;1.60;;;;;;;9.51;75.69;99628.06;4115899;28;20062;-63
2023/04/12 04:49:48;;;;;;;5.85;1.90;;;;;;;9.52;75.84;99625.47;4127880;28;20038;-63
2023/04/12 04:52:09;;;;;;;10.20;2.50;;;;;;;9.62;75.19;99626.34;4131688;28;20566;-64
2023/04/12 04:54:12;;;;;;;6.07;2.20;;;;;;;9.63;75.25;99622.06;4120947;28;20039;-64
2023/04/12 04:56:17;;;;;;;4.47;1.90;;;;;;;9.61;75.35;99615.13;4115295;28;20090;-64
2023/04/12 04:58:24;;;;;;;6.95;1.80;;;;;;;9.58;75.69;99612.50;4118317;28;20401;-63
2023/04/12 05:00:27;;;;;;;5.03;2.10;;;;;;;9.72;75.34;99611.69;4105873;28;20126;-63
2023/04/12 05:02:32;;;;;;;2.70;1.67;;;;;;;9.63;75.39;99607.34;4121213;28;20101;-64
2023/04/12 05:04:36;;;;;;;4.35;1.85;;;;;;;9.55;75.07;99616.81;4120953;28;20038;-64
2023/04/12 05:06:39;;;;;;;3.92;1.70;;;;;;;9.51;75.51;99608.16;4131953;28;20089;-64
2023/04/12 05:08:44;;;;;;;8.60;2.47;;;;;;;9.49;75.96;99598.63;4133871;28;20484;-63
2023/04/12 05:10:51;;;;;;;5.47;1.90;;;;;;;9.52;76.03;99609.91;4115695;28;20081;-63
2023/04/12 05:12:55;;;;;;;5.15;1.95;;;;;;;9.50;75.95;99603.81;4108974;28;20449;-63
2023/04/12 05:14:59;;;;;;;6.13;2.17;;;;;;;9.57;76.04;99595.19;4119647;28;20427;-63
2023/04/12 05:17:14;;;;;;;;;;;;;;;9.37;76.51;99602.88;4119654;28;20063;-63
2023/04/12 05:19:17;;;;;;;10.05;2.20;;;;;;;9.48;76.45;99612.47;4123600;28;19960;-63
2023/04/12 05:21:21;;;;;;;4.40;2.08;;;;;;;9.55;75.95;99593.44;4125874;28;20045;-63
2023/04/12 05:23:26;;;;;;;6.32;2.22;;;;;;;9.54;76.01;99586.56;4124639;28;20050;-63
2023/04/12 05:25:29;;;;;;;6.25;1.92;;;;;;;9.53;75.91;99569.25;4130922;28;20101;-63
2023/04/12 05:27:38;;;;;;;4.85;1.70;;;;;;;9.53;75.91;99580.47;4118963;28;20054;-63
2023/04/12 05:29:43;;;;;;;4.93;1.92;;;;;;;9.50;76.27;99569.22;4109207;28;20074;-63
2023/04/12 05:31:46;;;;;;;5.40;2.55;;;;;;;9.44;76.41;99565.72;4115661;28;20045;-63
2023/04/12 05:33:54;;;;;;;3.95;1.80;;;;;;;9.52;76.21;99562.31;4130396;28;20061;-63
2023/04/12 05:36:02;;;;;;;5.30;1.95;;;;;;;9.51;76.42;99552.81;4127490;28;20046;-63
2023/04/12 05:38:07;;;;;;;8.90;2.20;;;;;;;9.48;76.20;99545.88;4134994;23;20051;-64
2023/04/12 05:40:10;;;;;;;11.18;3.70;;;;;;;9.48;76.15;99538.09;4128337;28;20048;-64
2023/04/12 05:42:13;;;;;;;5.35;2.05;;;;;;;9.47;76.31;99541.53;4130647;28;20496;-64
2023/04/12 05:44:16;;;;;;;5.18;2.15;;;;;;;9.52;75.93;99526.88;4130941;28;20524;-64
2023/04/12 05:46:19;;;;;;;9.98;2.67;;;;;;;9.44;76.28;99529.41;4143778;28;20562;-64
2023/04/12 05:48:25;;;;;;;8.15;2.47;;;;;;;9.46;76.32;99520.78;4130798;28;20046;-64
2023/04/12 05:50:30;;;;;;;3.25;1.65;;;;;;;9.36;76.74;99510.38;4128183;28;20047;-64
2023/04/12 05:52:33;;;;;;;6.38;2.67;;;;;;;9.47;76.79;99509.56;4139659;28;20034;-64
2023/04/12 05:54:38;;;;;;;6.43;2.25;;;;;;;9.51;76.51;99513.91;4126953;28;20038;-64
2023/04/12 05:56:42;;;;;;;5.65;2.67;;;;;;;9.46;76.79;99505.22;4134325;28;20412;-64
2023/04/12 05:58:47;;;;;;;5.10;2.17;;;;;;;9.48;76.88;99498.31;4139418;28;20034;-64
2023/04/12 06:00:50;;;;;;;5.38;2.88;;;;;;;9.47;76.87;99488.78;4157581;28;20046;-64
2023/04/12 06:02:53;;;;;;;7.53;3.63;;;;;;;9.50;77.42;99491.41;4159861;28;20495;-64
2023/04/12 06:04:56;;;;;;;4.50;2.08;;;;;;;9.56;76.61;99478.44;4132445;28;20036;-64
2023/04/12 06:07:02;;;;;;;5.03;2.28;;;;;;;9.39;76.97;99473.22;4120433;28;20050;-64
2023/04/12 06:09:05;;;;;;;5.43;2.40;;;;;;;9.36;77.55;99463.69;4131114;28;20050;-64
2023/04/12 06:11:10;;;;;;;5.40;2.05;;;;;;;9.42;77.81;99448.13;4136744;28;20038;-64
2023/04/12 06:13:14;;;;;;;7.55;2.58;;;;;;;9.55;77.05;99453.34;4141315;28;20038;-64
2023/04/12 06:15:18;;;;;;;6.97;2.92;;;;;;;9.55;77.09;99445.56;4134456;28;20027;-64
2023/04/12 06:17:25;;;;;;;7.53;2.50;;;;;;;9.49;77.39;99458.53;4117911;28;20034;-64
2023/04/12 06:19:28;;;;;;;7.07;2.08;;;;;;;9.52;77.63;99462.00;4130716;28;20541;-64
2023/04/12 06:21:31;;;;;;;8.23;2.75;;;;;;;9.64;77.29;99448.19;4129704;28;20495;-64
2023/04/12 06:23:34;;;;;;;7.20;2.65;;;;;;;9.68;76.86;99447.34;4159336;28;20427;-64
2023/04/12 06:25:37;;;;;;;5.25;2.55;;;;;;;9.71;77.14;99449.03;4131641;28;20122;-64
2023/04/12 06:27:42;;;;;;;5.35;2.47;;;;;;;9.60;77.72;99451.63;4132458;28;20042;-64
2023/04/12 06:29:45;;;;;;;3.40;1.92;;;;;;;9.57;77.75;99447.28;4121756;28;20651;-64
2023/04/12 06:31:48;;;;;;;5.13;2.28;;;;;;;9.54;77.54;99442.09;4122499;28;20175;-64
2023/04/12 06:33:51;;;;;;;6.32;2.60;;;;;;;9.53;77.84;99444.69;4156301;28;20042;-64
2023/04/12 06:35:54;;;;;;;5.72;2.22;;;;;;;9.53;77.80;99448.16;4133444;28;20050;-64
2023/04/12 06:37:58;;;;;;;6.00;2.33;;;;;;;9.64;77.50;99437.81;4126422;28;20447;-64
2023/04/12 06:40:01;;;;;;;7.75;2.30;;;;;;;9.55;77.46;99440.38;4135827;28;20497;-64
2023/04/12 06:42:04;;;;;;;8.98;2.65;;;;;;;9.61;77.76;99432.63;4135422;28;20053;-64
2023/04/12 06:44:08;;;;;;;7.55;2.63;;;;;;;9.63;77.67;99424.84;4156255;28;20065;-64
2023/04/12 06:46:11;;;;;;;9.63;2.75;;;;;;;9.53;77.97;99418.75;4144808;28;20042;-64
2023/04/12 06:48:13;;;;;;;4.53;2.17;;;;;;;9.56;78.16;99419.63;4134792;28;20041;-64
2023/04/12 06:50:17;;;;;;;7.60;2.20;;;;;;;9.66;78.39;99412.72;4130725;28;20042;-64
2023/04/12 06:52:20;;;;;;;8.20;3.25;;;;;;;9.68;77.75;99405.81;4128540;28;20034;-64
2023/04/12 06:54:23;;;;;;;7.13;2.40;;;;;;;9.65;78.14;99403.22;4132431;28;20045;-64
2023/04/12 06:56:25;;;;;;;7.95;2.75;;;;;;;9.72;78.17;99404.06;4130709;28;20392;-64
2023/04/12 06:58:29;;;;;;;7.90;2.55;;;;;;;9.84;77.73;99390.22;4128752;28;20097;-64
2023/04/12 07:00:33;;;;;;;7.22;2.35;;;;;;;9.74;78.14;99404.94;4130184;28;20032;-64
2023/04/12 07:02:37;;;;;;;5.72;2.20;;;;;;;9.72;77.55;99417.03;4133016;28;20038;-64
2023/04/12 07:04:40;;;;;;;6.07;2.75;;;;;;;9.73;78.40;99391.09;4136985;28;20057;-63
2023/04/12 07:06:43;;;;;;;6.10;2.60;;;;;;;9.73;78.08;99385.91;4144809;28;20085;-64
2023/04/12 07:08:47;;;;;;;6.38;2.60;;;;;;;9.83;78.20;99375.50;4131551;28;20081;-64
2023/04/12 07:10:53;;;;;;;5.07;2.15;;;;;;;9.88;78.04;99379.84;4138463;28;20029;-64
2023/04/12 07:12:58;;;;;;;7.60;3.13;;;;;;;9.89;78.42;99375.53;4129892;28;20042;-64
2023/04/12 07:15:00;;;;;;;2.85;2.05;;;;;;;9.98;77.80;99364.28;4132608;28;20070;-64
2023/04/12 07:17:05;;;;;;;2.90;1.65;;;;;;;9.94;78.16;99358.19;4133212;28;20345;-64
2023/04/12 07:19:07;;;;;;;6.40;3.15;;;;;;;9.89;78.12;99345.22;4137212;28;20083;-64
2023/04/12 07:21:13;;;;;;;4.85;2.28;;;;;;;9.89;78.20;99342.63;4140599;28;20129;-64
2023/04/12 07:23:16;;;;;;;4.93;1.92;;;;;;;9.96;78.23;99348.69;4141918;28;20042;-64
2023/04/12 07:25:18;;;;;;;8.05;2.78;;;;;;;9.99;77.95;99340.91;4141267;28;20039;-64
2023/04/12 07:27:21;;;;;;;4.25;2.13;;;;;;;10.06;77.94;99327.03;4131452;28;20042;-64
2023/04/12 07:29:24;;;;;;;7.95;2.70;;;;;;;10.09;77.53;99324.44;4125605;28;20093;-64
2023/04/12 07:31:29;;;;;;;4.53;2.35;;;;;;;10.05;77.86;99321.84;4135772;28;20064;-64
2023/04/12 07:33:34;;;;;;;;;;;;;;;10.09;78.06;99332.22;4131100;28;20489;-64
2023/04/12 07:35:37;;;;;;;8.48;2.50;;;;;;;10.07;78.17;99322.69;4138749;28;20367;-64
2023/04/12 07:37:40;;;;;;;5.65;2.45;;;;;;;10.03;78.09;99316.66;4143473;28;20419;-64
2023/04/12 07:39:43;;;;;;;4.55;2.63;;;;;;;10.14;77.75;99309.69;4131639;28;20141;-64
2023/04/12 07:41:47;;;;;;;7.00;2.78;;;;;;;10.14;77.78;99304.50;4124763;28;20576;-64
2023/04/12 07:43:50;;;;;;;4.13;2.63;;;;;;;10.14;77.90;99304.50;4132628;28;20041;-64
2023/04/12 07:45:54;;;;;;;6.32;2.70;;;;;;;10.10;78.34;99291.53;4134489;28;20027;-64
2023/04/12 07:47:57;;;;;;;5.53;2.63;;;;;;;10.13;78.04;99292.41;4139386;28;20038;-64
2023/04/12 07:50:02;;;;;;;8.63;2.85;;;;;;;10.14;78.53;99288.91;4139757;28;20038;-64
2023/04/12 07:52:06;;;;;;;4.15;2.40;;;;;;;10.10;78.91;99278.53;4144626;28;20092;-64
2023/04/12 07:54:09;;;;;;;7.13;2.90;;;;;;;10.11;78.58;99280.28;4134188;28;20050;-64
2023/04/12 07:56:11;;;;;;;4.32;2.58;;;;;;;10.14;78.88;99269.88;4132283;28;20411;-64
2023/04/12 07:58:15;;;;;;;6.30;2.33;;;;;;;10.18;78.07;99270.72;4130927;28;20030;-63
2023/04/12 08:00:19;;;;;;;5.23;2.50;;;;;;;10.14;78.08;99270.72;4135440;28;20038;-64
2023/04/12 08:02:24;;;;;;;5.63;2.05;;;;;;;10.18;78.09;99263.81;4138430;28;20050;-64
2023/04/12 08:04:27;;;;;;;4.60;2.58;;;;;;;10.18;78.82;99268.13;4135346;28;20175;-64
2023/04/12 08:06:32;;;;;;;4.97;2.40;;;;;;;10.22;78.09;99259.47;4138928;28;20030;-64
2023/04/12 08:08:36;;;;;;;5.18;2.55;;;;;;;10.20;78.85;99263.81;4131723;28;20038;-64
2023/04/12 08:10:39;;;;;;;5.30;2.47;;;;;;;10.27;79.15;99257.72;4134749;28;20499;-65
2023/04/12 08:12:42;;;;;;;11.45;3.97;;;;;;;10.39;78.17;99254.25;4108211;28;20051;-64
2023/04/12 08:14:45;;;;;;;6.13;2.92;;;;;;;10.38;78.12;99252.50;4130382;28;20045;-65
2023/04/12 08:16:48;;;;;;;4.38;2.35;;;;;;;10.36;78.93;99249.91;4144047;28;20496;-64
2023/04/12 08:18:51;;;;;;;5.30;2.60;;;;;;;10.33;78.51;99257.69;4147780;28;20084;-64
2023/04/12 08:20:54;;;;;;;3.47;2.25;;;;;;;10.41;78.96;99252.47;4133534;28;20417;-64
2023/04/12 08:22:58;;;;;;;4.68;2.28;;;;;;;10.40;79.28;99253.38;4129627;28;20100;-64
2023/04/12 08:25:01;;;;;;;6.65;2.45;;;;;;;10.44;79.64;99250.75;4130281;28;20133;-64
2023/04/12 08:27:04;;;;;;;6.95;3.03;;;;;;;10.57;78.54;99245.47;4130445;28;20592;-64
2023/04/12 08:29:07;;;;;;;4.07;2.30;;;;;;;10.61;78.67;99242.84;4131416;28;20061;-65
2023/04/12 08:31:10;;;;;;;5.97;2.70;;;;;;;10.69;79.05;99250.63;4129562;28;20042;-66
2023/04/12 08:33:13;;;;;;;7.97;3.20;;;;;;;10.72;79.40;99240.19;4128796;28;20050;-65
2023/04/12 08:35:15;;;;;;;4.18;2.30;;;;;;;10.78;78.50;99240.16;4131435;28;20112;-67
2023/04/12 08:37:18;;;;;;;9.13;2.42;;;;;;;10.92;78.83;99247.88;4130840;28;20493;-65
2023/04/12 08:39:23;;;;;;;4.50;2.20;;;;;;;10.92;79.08;99236.59;4137451;28;20041;-62
2023/04/12 08:41:26;;;;;;;5.57;2.72;;;;;;;11.12;78.81;99221.69;4145375;28;20034;-62
2023/04/12 08:43:31;;;;;;;4.82;2.70;;;;;;;11.11;78.12;99235.59;4134217;28;20038;-62
2023/04/12 08:45:35;;;;;;;5.50;2.58;;;;;;;11.04;79.16;99227.84;4131434;28;20432;-62
2023/04/12 08:47:40;;;;;;;5.10;2.08;;;;;;;11.07;78.11;99241.69;4130398;28;20046;-62
2023/04/12 08:49:43;;;;;;;;;;;;;;;11.00;78.61;99237.41;4125016;28;20066;-63
2023/04/12 08:51:46;;;;;;;7.15;2.55;;;;;;;11.04;78.57;99243.44;4139265;28;19929;-68
2023/04/12 08:53:49;;;;;;;8.38;2.63;;;;;;;11.05;78.63;99227.81;4141945;28;20081;-69
2023/04/12 08:55:54;;;;;;;5.53;2.28;;;;;;;11.11;79.03;99227.81;4134406;28;20041;-65
2023/04/12 08:57:58;;;;;;;4.55;2.47;;;;;;;11.15;79.31;99219.06;4132461;28;20042;-63
2023/04/12 09:00:02;;;;;;;13.05;2.70;;;;;;;11.15;79.40;99223.41;4127261;28;20403;-64
2023/04/12 09:02:05;;;;;;;7.55;2.83;;;;;;;11.05;78.73;99235.63;4131254;28;20089;-63
2023/04/12 09:04:08;;;;;;;7.03;2.75;;;;;;;11.15;78.56;99221.66;4144636;28;20129;-63
2023/04/12 09:06:12;;;;;;;8.27;2.60;;;;;;;11.17;79.11;99225.16;4130284;28;20125;-63
2023/04/12 09:08:16;;;;;;;5.50;2.17;;;;;;;11.20;78.62;99221.66;4132975;28;20038;-60
2023/04/12 09:10:31;;;;;;;8.70;2.97;;;;;;;11.34;78.60;99218.94;4117970;28;20077;-61
2023/04/12 09:12:35;;;;;;;5.28;2.50;;;;;;;11.15;78.74;99221.66;4144616;28;20432;-61
2023/04/12 09:14:39;;;;;;;7.32;3.08;;;;;;;11.15;78.51;99215.63;4147283;28;20046;-60
2023/04/12 09:16:42;;;;;;;3.58;2.10;;;;;;;11.29;78.35;99213.78;4130973;28;20101;-59
2023/04/12 09:18:49;;;;;;;9.23;3.53;;;;;;;11.32;79.34;99208.53;4131246;28;20122;-62
2023/04/12 09:21:06;;;;;;;9.40;3.97;;;;;;;11.33;79.21;99201.59;4129632;28;20043;-59
2023/04/12 09:23:19;;;;;;;6.10;3.15;;;;;;;11.42;78.97;99193.72;4114444;28;20105;-59
2023/04/12 09:25:47;;;;;;;8.00;3.33;;;;;;;11.51;78.78;99185.78;4122030;28;20404;-58
2023/04/12 09:27:53;;;;;;;3.83;2.58;;;;;;;11.45;78.75;99185.88;4143337;28;20487;-59
2023/04/12 09:30:07;;;;;;;10.18;3.88;;;;;;;11.62;79.14;99185.69;4149258;28;20389;-59
2023/04/12 09:32:09;;;;;;;7.03;2.90;;;;;;;11.62;77.62;99177.00;4132076;28;20034;-60
2023/04/12 09:34:12;;;;;;;7.28;3.55;;;;;;;11.59;78.43;99174.44;4133897;28;20050;-64
2023/04/12 09:36:17;;;;;;;6.65;3.47;;;;;;;11.59;78.88;99182.25;4133508;28;20050;-60
2023/04/12 09:38:20;;;;;;;8.60;3.78;;;;;;;11.52;78.17;99174.50;4119687;28;20121;-61
2023/04/12 09:40:24;;;;;;;7.05;3.38;;;;;;;11.49;78.87;99171.06;4133646;28;20066;-62
2023/04/12 09:42:27;;;;;;;8.13;3.78;;;;;;;11.62;78.61;99177.91;4132962;28;20428;-61
2023/04/12 09:44:38;;;;;;;12.57;3.97;;;;;;;11.55;79.00;99185.75;4133840;28;20038;-61
2023/04/12 09:46:50;;;;;;;9.55;3.03;;;;;;;11.50;78.26;99185.81;4141440;28;20041;-61
2023/04/12 09:48:55;;;;;;;8.15;4.20;;;;;;;11.52;78.26;99166.72;4143398;28;20508;-62
2023/04/12 09:50:59;;;;;;;6.07;3.55;;;;;;;11.53;79.00;99173.66;4141166;28;20230;-62
2023/04/12 09:53:03;;;;;;;8.20;3.65;;;;;;;11.58;79.07;99170.09;4132959;28;20205;-61